createdAt,value
2019-03-21T00:01:19.043Z,99.90
2019-03-21T00:03:49.118Z,99.90
2019-03-21T00:06:17.557Z,99.90
2019-03-21T00:08:47.140Z,99.90
2019-03-21T00:11:51.815Z,99.90
2019-03-21T00:14:23.329Z,99.90
2019-03-21T00:16:51.835Z,99.90
2019-03-21T00:19:20.272Z,99.90
2019-03-21T00:21:48.686Z,99.90
2019-03-21T00:24:17.131Z,99.90
2019-03-21T00:26:45.558Z,99.90
2019-03-21T00:29:13.984Z,99.90
2019-03-21T00:31:42.437Z,99.90
2019-03-21T00:34:10.901Z,99.90
2019-03-21T00:36:39.341Z,99.90
2019-03-21T00:39:09.737Z,99.90
2019-03-21T00:41:38.165Z,99.90
2019-03-21T00:44:17.628Z,99.90
2019-03-21T00:46:36.762Z,99.90
2019-03-21T00:49:05.275Z,99.90
2019-03-21T00:51:33.710Z,99.90
2019-03-21T00:54:02.143Z,99.90
2019-03-21T00:56:30.627Z,99.90
2019-03-21T00:58:59.081Z,99.90
2019-03-21T01:01:27.576Z,99.90
2019-03-21T01:03:56.007Z,99.90
2019-03-21T01:06:24.458Z,99.90
2019-03-21T01:08:52.939Z,99.90
2019-03-21T01:11:21.442Z,99.90
2019-03-21T01:13:49.903Z,99.90
2019-03-21T01:16:18.343Z,99.90
2019-03-21T01:18:47.604Z,99.90
2019-03-21T01:21:16.039Z,99.90
2019-03-21T01:23:44.457Z,99.90
2019-03-21T01:26:14.544Z,99.90
2019-03-21T01:28:43.126Z,99.90
2019-03-21T01:31:11.579Z,99.90
2019-03-21T01:33:39.994Z,99.90
2019-03-21T01:36:08.722Z,99.90
2019-03-21T01:38:37.139Z,99.90
2019-03-21T01:41:11.602Z,99.90
2019-03-21T01:43:40.044Z,99.90
2019-03-21T01:46:14.786Z,99.90
2019-03-21T01:48:43.233Z,99.90
2019-03-21T01:51:11.706Z,99.90
2019-03-21T01:53:40.146Z,99.90
2019-03-21T01:56:08.612Z,99.90
2019-03-21T01:58:37.092Z,99.90
2019-03-21T02:01:05.541Z,99.90
2019-03-21T02:03:33.964Z,99.90
2019-03-21T02:06:02.406Z,99.90
2019-03-21T02:08:30.833Z,99.90
2019-03-21T02:10:59.282Z,99.90
2019-03-21T02:13:27.726Z,99.90
2019-03-21T02:15:56.173Z,99.90
2019-03-21T02:18:24.620Z,99.90
2019-03-21T02:20:53.055Z,99.90
2019-03-21T02:23:21.498Z,99.90
2019-03-21T02:25:50.002Z,99.90
2019-03-21T02:28:18.448Z,99.90
2019-03-21T02:30:49.666Z,99.90
2019-03-21T02:33:32.420Z,99.90
2019-03-21T02:36:02.296Z,99.90
2019-03-21T02:38:30.712Z,99.90
2019-03-21T02:41:05.201Z,99.90
2019-03-21T02:43:33.925Z,99.90
2019-03-21T02:46:02.391Z,99.90
2019-03-21T02:48:30.839Z,99.90
2019-03-21T02:50:59.277Z,99.90
2019-03-21T02:53:27.788Z,99.90
2019-03-21T02:55:56.210Z,99.90
2019-03-21T02:58:27.592Z,99.90
2019-03-21T03:00:56.014Z,99.90
2019-03-21T03:03:24.459Z,99.90
2019-03-21T03:05:52.876Z,99.90
2019-03-21T03:08:21.330Z,99.90
2019-03-21T03:10:57.695Z,99.90
2019-03-21T03:13:26.146Z,99.90
2019-03-21T03:15:54.619Z,99.90
2019-03-21T03:18:24.429Z,99.90
2019-03-21T03:20:52.845Z,99.90
2019-03-21T03:23:21.368Z,99.90
2019-03-21T03:25:51.399Z,99.90
2019-03-21T03:28:31.517Z,99.90
2019-03-21T03:30:59.945Z,99.90
2019-03-21T03:33:28.642Z,99.90
2019-03-21T03:35:57.192Z,99.90
2019-03-21T03:38:25.639Z,99.90
2019-03-21T03:41:02.519Z,99.90
2019-03-21T03:43:31.054Z,99.90
2019-03-21T03:45:59.568Z,99.90
2019-03-21T03:48:28.559Z,99.90
2019-03-21T03:50:57.075Z,99.90
2019-03-21T03:53:25.530Z,99.90
2019-03-21T03:55:53.966Z,99.90
2019-03-21T03:58:24.994Z,99.90
2019-03-21T04:00:53.443Z,99.90
2019-03-21T04:03:21.924Z,99.90
2019-03-21T04:05:50.355Z,99.90
2019-03-21T04:08:18.805Z,99.90
2019-03-21T04:10:49.821Z,99.90
2019-03-21T04:13:18.247Z,99.90
2019-03-21T04:15:53.365Z,99.90
2019-03-21T04:18:18.835Z,99.90
2019-03-21T04:20:56.036Z,99.90
2019-03-21T04:23:24.493Z,99.90
2019-03-21T04:26:05.056Z,99.90
2019-03-21T04:28:33.591Z,99.90
2019-03-21T04:31:02.073Z,99.90
2019-03-21T04:33:30.604Z,99.90
2019-03-21T04:35:59.033Z,99.90
2019-03-21T04:38:27.484Z,99.90
2019-03-21T04:40:55.902Z,99.90
2019-03-21T04:43:24.334Z,99.90
2019-03-21T04:46:02.912Z,99.90
2019-03-21T04:48:23.559Z,99.90
2019-03-21T04:50:51.981Z,99.90
2019-03-21T04:53:20.420Z,99.90
2019-03-21T04:55:48.837Z,99.90
2019-03-21T04:58:17.269Z,99.90
2019-03-21T05:00:56.541Z,99.90
2019-03-21T05:03:32.855Z,99.90
2019-03-21T05:06:01.323Z,99.90
2019-03-21T05:08:29.760Z,99.90
2019-03-21T05:10:58.197Z,99.90
2019-03-21T05:13:26.636Z,99.90
2019-03-21T05:15:55.242Z,99.90
2019-03-21T05:18:26.747Z,99.90
2019-03-21T05:20:55.202Z,99.90
2019-03-21T05:23:23.663Z,99.90
2019-03-21T05:25:52.075Z,99.90
2019-03-21T05:28:20.516Z,99.90
2019-03-21T05:31:00.739Z,99.90
2019-03-21T05:33:29.173Z,99.90
2019-03-21T05:35:57.597Z,99.90
2019-03-21T05:38:28.481Z,99.90
2019-03-21T05:40:56.933Z,99.90
2019-03-21T05:43:33.988Z,99.90
2019-03-21T05:46:02.423Z,99.90
2019-03-21T05:48:30.880Z,99.90
2019-03-21T05:50:59.324Z,99.90
2019-03-21T05:53:27.752Z,99.90
2019-03-21T05:55:56.192Z,99.90
2019-03-21T05:58:24.621Z,99.90
2019-03-21T06:01:01.973Z,99.90
2019-03-21T06:03:46.548Z,99.90
2019-03-21T06:06:18.396Z,99.90
2019-03-21T06:08:46.853Z,99.90
2019-03-21T06:11:15.333Z,99.90
2019-03-21T06:13:43.751Z,99.90
2019-03-21T06:16:12.185Z,99.90
2019-03-21T06:19:04.746Z,99.90
2019-03-21T06:21:48.122Z,99.90
2019-03-21T06:24:28.635Z,99.90
2019-03-21T06:27:15.101Z,99.90
2019-03-21T06:29:43.658Z,99.90
2019-03-21T06:32:13.127Z,99.90
2019-03-21T06:34:41.731Z,99.90
2019-03-21T06:37:10.160Z,99.90
2019-03-21T06:39:38.593Z,99.90
2019-03-21T06:42:07.036Z,99.90
2019-03-21T06:44:35.463Z,99.90
2019-03-21T06:47:03.963Z,99.90
2019-03-21T06:49:32.443Z,99.90
2019-03-21T06:52:00.877Z,99.90
2019-03-21T06:54:29.309Z,99.90
2019-03-21T06:56:57.754Z,99.90
2019-03-21T06:59:26.177Z,99.90
2019-03-21T07:01:54.612Z,99.90
2019-03-21T07:04:23.051Z,99.90
2019-03-21T07:06:51.497Z,99.90
2019-03-21T07:09:19.909Z,99.90
2019-03-21T07:11:48.423Z,99.90
2019-03-21T07:14:16.858Z,99.90
2019-03-21T07:16:45.301Z,99.90
2019-03-21T07:19:13.750Z,99.90
2019-03-21T07:21:42.184Z,99.90
2019-03-21T07:24:10.615Z,99.90
2019-03-21T07:26:42.294Z,99.90
2019-03-21T07:29:10.711Z,99.90
2019-03-21T07:31:39.163Z,99.90
2019-03-21T07:34:10.027Z,99.90
2019-03-21T07:36:37.783Z,99.90
2019-03-21T07:39:07.746Z,99.90
2019-03-21T07:41:36.178Z,99.90
2019-03-21T07:44:04.674Z,99.90
2019-03-21T07:46:33.142Z,99.90
2019-03-21T07:49:01.559Z,99.90
2019-03-21T07:51:30.012Z,99.90
2019-03-21T07:53:58.688Z,99.90
2019-03-21T07:56:27.127Z,99.90
2019-03-21T07:58:57.651Z,99.90
2019-03-21T08:01:25.702Z,99.90
2019-03-21T08:03:54.137Z,99.90
2019-03-21T08:06:22.589Z,99.90
2019-03-21T08:08:51.023Z,99.90
2019-03-21T08:11:19.475Z,99.90
2019-03-21T08:13:47.903Z,99.90
2019-03-21T08:16:16.400Z,99.90
2019-03-21T08:18:44.858Z,99.90
2019-03-21T08:21:13.302Z,99.90
2019-03-21T08:23:41.724Z,99.90
2019-03-21T08:26:10.163Z,99.90
2019-03-21T08:28:38.603Z,99.90
2019-03-21T08:31:10.118Z,99.90
2019-03-21T08:33:38.816Z,99.90
2019-03-21T08:36:07.224Z,99.90
2019-03-21T08:38:35.674Z,99.90
2019-03-21T08:41:04.397Z,99.90
2019-03-21T08:43:32.834Z,99.90
2019-03-21T08:46:01.262Z,99.90
2019-03-21T08:48:29.677Z,99.90
2019-03-21T08:51:07.762Z,99.90
2019-03-21T08:53:28.284Z,99.90
2019-03-21T08:55:56.786Z,99.90
2019-03-21T08:58:25.228Z,99.90
2019-03-21T09:00:53.653Z,99.90
2019-03-21T09:03:22.106Z,99.90
2019-03-21T09:05:50.597Z,99.90
2019-03-21T09:08:19.048Z,99.90
2019-03-21T09:10:47.473Z,99.90
2019-03-21T09:13:16.197Z,99.90
2019-03-21T09:15:44.633Z,99.90
2019-03-21T09:18:13.090Z,99.90
2019-03-21T09:20:41.547Z,99.90
2019-03-21T09:23:09.980Z,99.90
2019-03-21T09:25:38.407Z,99.90
2019-03-21T09:28:07.138Z,99.90
2019-03-21T09:30:35.599Z,99.90
2019-03-21T09:33:04.044Z,99.90
2019-03-21T09:35:32.469Z,99.90
2019-03-21T09:38:00.916Z,99.90
2019-03-21T09:40:29.342Z,99.90
2019-03-21T09:42:57.787Z,99.90
2019-03-21T09:45:26.222Z,99.90
2019-03-21T09:47:54.664Z,99.90
2019-03-21T09:50:28.168Z,99.90
2019-03-21T09:52:56.604Z,99.90
2019-03-21T09:55:25.189Z,99.90
2019-03-21T09:57:53.617Z,99.90
2019-03-21T10:00:35.849Z,99.90
2019-03-21T10:03:05.644Z,99.90
2019-03-21T10:05:34.057Z,99.90
2019-03-21T10:08:02.961Z,99.90
2019-03-21T10:10:32.523Z,99.90
2019-03-21T10:13:01.198Z,99.90
2019-03-21T10:15:29.699Z,99.90
2019-03-21T10:17:58.138Z,99.90
2019-03-21T10:20:26.561Z,99.90
2019-03-21T10:22:54.985Z,99.90
2019-03-21T10:25:23.418Z,99.90
2019-03-21T10:27:51.847Z,99.90
2019-03-21T10:30:35.625Z,99.60
2019-03-21T10:33:05.825Z,99.80
2019-03-21T10:35:34.388Z,99.90
2019-03-21T10:38:02.973Z,99.50
2019-03-21T10:40:31.468Z,97.50
2019-03-21T10:42:59.912Z,96.30
2019-03-21T10:45:28.351Z,96.40
2019-03-21T10:47:56.824Z,96.90
2019-03-21T10:50:31.068Z,97.60
2019-03-21T10:52:59.903Z,97.20
2019-03-21T10:55:28.426Z,98.00
2019-03-21T10:57:56.939Z,98.50
2019-03-21T11:00:25.451Z,98.30
2019-03-21T11:02:53.889Z,98.50
2019-03-21T11:05:23.361Z,98.00
2019-03-21T11:07:52.095Z,96.20
2019-03-21T11:10:20.615Z,97.00
2019-03-21T11:12:49.379Z,95.90
2019-03-21T11:15:17.820Z,95.80
2019-03-21T11:17:46.400Z,95.50
2019-03-21T11:20:26.974Z,95.50
2019-03-21T11:22:55.851Z,94.20
2019-03-21T11:25:24.529Z,92.60
2019-03-21T11:27:53.914Z,91.80
2019-03-21T11:30:31.190Z,92.70
2019-03-21T11:33:00.138Z,92.50
2019-03-21T11:35:28.610Z,92.90
2019-03-21T11:37:57.034Z,93.10
2019-03-21T11:40:25.489Z,90.80
2019-03-21T11:42:53.933Z,90.00
2019-03-21T11:45:22.459Z,88.90
2019-03-21T11:47:50.861Z,88.30
2019-03-21T11:50:19.310Z,85.30
2019-03-21T11:52:47.730Z,84.90
2019-03-21T11:55:16.257Z,83.90
2019-03-21T11:57:44.693Z,85.30
2019-03-21T12:00:14.552Z,85.90
2019-03-21T12:02:43.049Z,82.00
2019-03-21T12:05:11.638Z,82.70
2019-03-21T12:07:40.395Z,81.20
2019-03-21T12:10:11.373Z,82.00
2019-03-21T12:12:40.705Z,78.30
2019-03-21T12:15:11.090Z,77.20
2019-03-21T12:17:39.514Z,78.10
2019-03-21T12:20:11.384Z,79.30
2019-03-21T12:22:39.827Z,77.40
2019-03-21T12:25:09.299Z,77.90
2019-03-21T12:27:37.722Z,76.80
2019-03-21T12:30:09.312Z,75.80
2019-03-21T12:32:37.726Z,75.10
2019-03-21T12:35:07.785Z,75.30
2019-03-21T12:37:36.216Z,74.80
2019-03-21T12:40:09.065Z,72.70
2019-03-21T12:42:37.536Z,74.30
2019-03-21T12:45:10.069Z,75.90
2019-03-21T12:47:38.492Z,76.20
2019-03-21T12:50:08.262Z,73.60
2019-03-21T12:52:41.404Z,73.10
2019-03-21T12:55:07.507Z,71.90
2019-03-21T12:57:35.949Z,72.50
2019-03-21T13:00:10.254Z,71.20
2019-03-21T13:02:38.682Z,72.70
2019-03-21T13:05:08.571Z,74.00
2019-03-21T13:07:37.245Z,72.10
2019-03-21T13:10:06.459Z,70.90
2019-03-21T13:12:34.882Z,69.30
2019-03-21T13:15:04.498Z,71.40
2019-03-21T13:17:32.923Z,72.00
2019-03-21T13:20:05.811Z,69.90
2019-03-21T13:22:34.259Z,70.90
2019-03-21T13:25:02.701Z,72.60
2019-03-21T13:27:31.139Z,71.30
2019-03-21T13:29:59.572Z,71.00
2019-03-21T13:32:28.026Z,69.30
2019-03-21T13:34:56.445Z,69.20
2019-03-21T13:37:24.902Z,71.60
2019-03-21T13:39:53.329Z,68.80
2019-03-21T13:42:21.774Z,68.50
2019-03-21T13:44:50.209Z,68.30
2019-03-21T13:47:18.659Z,70.00
2019-03-21T13:49:47.083Z,70.00
2019-03-21T13:52:15.557Z,68.40
2019-03-21T13:54:44.013Z,70.70
2019-03-21T13:57:12.472Z,69.40
2019-03-21T13:59:40.928Z,68.90
2019-03-21T14:02:09.351Z,70.00
2019-03-21T14:04:37.788Z,71.30
2019-03-21T14:07:06.216Z,70.20
2019-03-21T14:09:34.911Z,71.20
2019-03-21T14:12:03.397Z,71.00
2019-03-21T14:14:31.942Z,68.60
2019-03-21T14:17:03.570Z,69.70
2019-03-21T14:19:32.041Z,67.50
2019-03-21T14:22:00.545Z,68.30
2019-03-21T14:24:28.963Z,67.50
2019-03-21T14:26:57.694Z,67.90
2019-03-21T14:29:26.134Z,69.60
2019-03-21T14:31:54.593Z,68.10
2019-03-21T14:34:23.025Z,68.20
2019-03-21T14:36:51.462Z,67.10
2019-03-21T14:39:19.911Z,69.30
2019-03-21T14:41:48.348Z,67.60
2019-03-21T14:44:16.770Z,67.10
2019-03-21T14:46:45.240Z,66.20
2019-03-21T14:49:13.668Z,66.40
2019-03-21T14:51:42.106Z,67.80
2019-03-21T14:54:10.548Z,67.40
2019-03-21T14:56:38.982Z,67.40
2019-03-21T14:59:07.414Z,67.50
2019-03-21T15:01:35.872Z,67.00
2019-03-21T15:04:04.300Z,67.10
2019-03-21T15:06:32.749Z,66.80
2019-03-21T15:09:01.207Z,65.30
2019-03-21T15:11:29.663Z,66.70
2019-03-21T15:13:58.146Z,65.60
2019-03-21T15:16:26.645Z,66.00
2019-03-21T15:18:55.112Z,66.10
2019-03-21T15:21:23.631Z,65.50
2019-03-21T15:23:59.191Z,65.20
2019-03-21T15:26:22.237Z,65.80
2019-03-21T15:28:50.681Z,66.40
2019-03-21T15:31:19.199Z,67.30
2019-03-21T15:33:47.638Z,65.40
2019-03-21T15:36:16.073Z,65.00
2019-03-21T15:38:44.498Z,65.10
2019-03-21T15:41:12.936Z,67.20
2019-03-21T15:43:41.384Z,66.20
2019-03-21T15:46:09.795Z,67.20
2019-03-21T15:48:38.228Z,67.20
2019-03-21T15:51:06.681Z,65.90
2019-03-21T15:53:35.113Z,66.70
2019-03-21T15:56:03.611Z,68.00
2019-03-21T15:58:32.050Z,69.40
2019-03-21T16:01:00.496Z,67.80
2019-03-21T16:03:28.926Z,69.70
2019-03-21T16:05:57.373Z,69.90
2019-03-21T16:08:27.220Z,68.90
2019-03-21T16:10:55.919Z,68.90
2019-03-21T16:13:24.345Z,69.70
2019-03-21T16:15:52.778Z,69.70
2019-03-21T16:18:21.216Z,68.60
2019-03-21T16:20:49.623Z,69.40
2019-03-21T16:23:18.107Z,68.90
2019-03-21T16:25:48.582Z,69.50
2019-03-21T16:28:16.685Z,69.30
2019-03-21T16:30:45.096Z,69.20
2019-03-21T16:33:13.531Z,69.90
2019-03-21T16:35:41.946Z,69.20
2019-03-21T16:38:10.385Z,70.20
2019-03-21T16:40:38.853Z,70.40
2019-03-21T16:43:07.265Z,70.50
2019-03-21T16:45:35.713Z,71.10
2019-03-21T16:48:04.674Z,71.30
2019-03-21T16:50:33.113Z,71.60
2019-03-21T16:53:01.557Z,71.10
2019-03-21T16:55:30.003Z,72.30
2019-03-21T16:57:58.447Z,72.00
2019-03-21T17:00:26.886Z,72.90
2019-03-21T17:02:55.488Z,71.70
2019-03-21T17:05:23.938Z,72.50
2019-03-21T17:07:52.377Z,72.20
2019-03-21T17:10:20.844Z,73.80
2019-03-21T17:12:49.919Z,73.90
2019-03-21T17:15:18.545Z,73.50
2019-03-21T17:17:47.031Z,73.60
2019-03-21T17:20:15.513Z,74.20
2019-03-21T17:22:43.930Z,74.00
2019-03-21T17:25:13.193Z,74.50
2019-03-21T17:27:41.605Z,74.50
2019-03-21T17:30:14.713Z,75.00
2019-03-21T17:32:43.142Z,74.80
2019-03-21T17:35:11.854Z,75.40
2019-03-21T17:37:40.287Z,75.60
2019-03-21T17:40:11.578Z,75.60
2019-03-21T17:42:41.778Z,76.30
2019-03-21T17:45:15.569Z,76.50
2019-03-21T17:47:44.022Z,76.50
2019-03-21T17:50:14.792Z,77.30
2019-03-21T17:52:43.226Z,78.00
2019-03-21T17:55:12.203Z,77.80
2019-03-21T17:57:40.633Z,77.70
2019-03-21T18:00:12.181Z,78.00
2019-03-21T18:02:40.772Z,78.60
2019-03-21T18:05:09.343Z,78.30
2019-03-21T18:07:37.828Z,78.00
2019-03-21T18:10:23.994Z,78.30
2019-03-21T18:12:52.419Z,78.60
2019-03-21T18:15:20.917Z,78.80
2019-03-21T18:17:49.345Z,79.00
2019-03-21T18:20:17.784Z,79.70
2019-03-21T18:22:46.226Z,80.20
2019-03-21T18:25:14.673Z,80.00
2019-03-21T18:27:43.103Z,80.90
2019-03-21T18:30:11.993Z,80.60
2019-03-21T18:32:40.501Z,82.20
2019-03-21T18:35:09.274Z,82.10
2019-03-21T18:37:37.710Z,82.30
2019-03-21T18:40:08.403Z,82.30
2019-03-21T18:42:36.851Z,82.50
2019-03-21T18:45:07.922Z,82.60
2019-03-21T18:47:36.358Z,82.80
2019-03-21T18:50:09.148Z,82.80
2019-03-21T18:52:37.874Z,83.40
2019-03-21T18:55:07.379Z,84.70
2019-03-21T18:57:35.879Z,84.50
2019-03-21T19:00:07.053Z,84.10
2019-03-21T19:02:35.562Z,84.20
2019-03-21T19:05:06.105Z,84.30
2019-03-21T19:07:34.549Z,85.20
2019-03-21T19:10:03.854Z,85.90
2019-03-21T19:12:32.274Z,86.90
2019-03-21T19:15:00.725Z,87.00
2019-03-21T19:17:29.165Z,86.40
2019-03-21T19:19:57.602Z,86.70
2019-03-21T19:22:26.038Z,88.50
2019-03-21T19:24:54.477Z,88.90
2019-03-21T19:27:22.898Z,90.40
2019-03-21T19:29:51.339Z,90.60
2019-03-21T19:32:19.784Z,90.60
2019-03-21T19:34:48.223Z,90.80
2019-03-21T19:37:16.663Z,90.90
2019-03-21T19:39:45.086Z,91.30
2019-03-21T19:42:13.545Z,90.70
2019-03-21T19:44:42.253Z,90.70
2019-03-21T19:47:10.680Z,90.20
2019-03-21T19:49:39.125Z,90.50
2019-03-21T19:52:07.563Z,90.90
2019-03-21T19:54:36.017Z,91.40
2019-03-21T19:57:04.455Z,91.80
2019-03-21T19:59:32.892Z,92.30
2019-03-21T20:02:01.405Z,92.70
2019-03-21T20:04:29.844Z,92.90
2019-03-21T20:06:58.282Z,92.60
2019-03-21T20:09:26.797Z,93.70
2019-03-21T20:11:55.256Z,94.20
2019-03-21T20:14:23.678Z,95.20
2019-03-21T20:16:52.139Z,95.40
2019-03-21T20:19:20.570Z,95.50
2019-03-21T20:21:49.014Z,95.30
2019-03-21T20:24:17.468Z,95.30
2019-03-21T20:26:45.902Z,96.20
2019-03-21T20:29:14.327Z,96.80
2019-03-21T20:31:42.771Z,97.00
2019-03-21T20:34:12.938Z,97.60
2019-03-21T20:36:41.658Z,97.80
2019-03-21T20:39:10.150Z,97.80
2019-03-21T20:41:38.598Z,98.30
2019-03-21T20:44:15.164Z,98.70
2019-03-21T20:46:37.175Z,98.80
2019-03-21T20:49:05.697Z,99.40
2019-03-21T20:51:34.145Z,99.60
2019-03-21T20:54:08.433Z,98.90
2019-03-21T20:56:36.869Z,99.40
2019-03-21T20:59:05.382Z,99.90
2019-03-21T21:01:33.816Z,99.90
2019-03-21T21:04:02.275Z,99.90
2019-03-21T21:06:30.730Z,99.90
2019-03-21T21:08:59.164Z,99.90
2019-03-21T21:11:27.611Z,99.90
2019-03-21T21:13:56.045Z,99.90
2019-03-21T21:16:24.487Z,99.90
2019-03-21T21:18:52.931Z,99.90
2019-03-21T21:21:21.366Z,99.90
2019-03-21T21:23:49.801Z,99.90
2019-03-21T21:26:18.255Z,99.90
2019-03-21T21:28:46.732Z,99.90
2019-03-21T21:31:15.214Z,99.90
2019-03-21T21:33:43.642Z,99.90
2019-03-21T21:36:22.251Z,99.90
2019-03-21T21:38:49.828Z,99.90
2019-03-21T21:41:18.299Z,99.90
2019-03-21T21:43:46.785Z,99.90
2019-03-21T21:46:15.238Z,99.90
2019-03-21T21:48:43.683Z,99.90
2019-03-21T21:51:12.090Z,99.90
2019-03-21T21:53:40.556Z,99.90
2019-03-21T21:56:17.202Z,99.90
2019-03-21T21:58:39.182Z,99.90
2019-03-21T22:01:07.616Z,99.90
2019-03-21T22:03:36.070Z,99.90
2019-03-21T22:06:04.555Z,99.90
2019-03-21T22:08:32.996Z,99.90
2019-03-21T22:11:01.425Z,99.90
2019-03-21T22:13:29.876Z,99.90
2019-03-21T22:15:58.296Z,99.90
2019-03-21T22:18:26.732Z,99.90
2019-03-21T22:20:55.178Z,99.90
2019-03-21T22:23:23.610Z,99.90
2019-03-21T22:25:52.036Z,99.90
2019-03-21T22:28:20.461Z,99.90
2019-03-21T22:30:48.908Z,99.90
2019-03-21T22:33:17.406Z,99.90
2019-03-21T22:35:45.826Z,99.90
2019-03-21T22:38:14.269Z,99.90
2019-03-21T22:40:42.777Z,99.90
2019-03-21T22:43:11.214Z,99.90
2019-03-21T22:45:39.639Z,99.90
2019-03-21T22:48:08.080Z,99.90
2019-03-21T22:50:36.517Z,99.90
2019-03-21T22:53:04.942Z,99.90
2019-03-21T22:55:33.359Z,99.90
2019-03-21T22:58:01.785Z,99.90
2019-03-21T23:00:34.986Z,99.90
2019-03-21T23:03:03.672Z,99.90
2019-03-21T23:05:37.972Z,99.90
2019-03-21T23:08:06.397Z,99.90
2019-03-21T23:10:35.090Z,99.90
2019-03-21T23:13:03.514Z,99.90
2019-03-21T23:15:31.953Z,99.90
2019-03-21T23:18:00.385Z,99.90
2019-03-21T23:20:28.821Z,99.90
2019-03-21T23:22:57.257Z,99.90
2019-03-21T23:25:25.671Z,99.90
2019-03-21T23:27:54.103Z,99.90
2019-03-21T23:30:22.528Z,99.90
2019-03-21T23:32:50.973Z,99.90
2019-03-21T23:35:19.397Z,99.90
2019-03-21T23:37:47.833Z,99.90
2019-03-21T23:40:16.826Z,99.90
2019-03-21T23:42:45.292Z,99.90
2019-03-21T23:45:14.605Z,99.90
2019-03-21T23:47:43.040Z,99.90
2019-03-21T23:50:14.905Z,99.90
2019-03-21T23:52:43.741Z,99.90
2019-03-21T23:55:12.497Z,99.90
2019-03-21T23:57:40.937Z,99.90
